createdAt,value
2019-05-16T00:00:03.473Z,0.00
2019-05-16T00:01:03.468Z,0.00
2019-05-16T00:02:03.460Z,0.00
2019-05-16T00:03:03.451Z,0.00
2019-05-16T00:04:03.447Z,0.00
2019-05-16T00:05:03.437Z,0.00
2019-05-16T00:06:03.438Z,0.00
2019-05-16T00:07:03.424Z,0.00
2019-05-16T00:08:03.424Z,0.00
2019-05-16T00:09:03.411Z,0.00
2019-05-16T00:10:03.403Z,0.00
2019-05-16T00:11:03.395Z,0.00
2019-05-16T00:12:03.385Z,0.00
2019-05-16T00:13:03.386Z,0.00
2019-05-16T00:14:03.383Z,0.00
2019-05-16T00:15:03.370Z,0.00
2019-05-16T00:16:03.362Z,0.00
2019-05-16T00:17:03.356Z,0.00
2019-05-16T00:18:03.347Z,0.00
2019-05-16T00:19:03.341Z,0.00
2019-05-16T00:20:03.334Z,0.00
2019-05-16T00:21:03.328Z,0.00
2019-05-16T00:22:03.323Z,0.00
2019-05-16T00:23:03.313Z,0.00
2019-05-16T00:24:03.307Z,0.00
2019-05-16T00:25:03.305Z,0.00
2019-05-16T00:26:03.294Z,0.00
2019-05-16T00:27:03.285Z,0.00
2019-05-16T00:28:03.282Z,0.00
2019-05-16T00:29:03.270Z,0.00
2019-05-16T00:30:03.265Z,0.00
2019-05-16T00:31:03.257Z,0.00
2019-05-16T00:32:03.250Z,0.00
2019-05-16T00:33:03.243Z,0.00
2019-05-16T00:34:03.235Z,0.00
2019-05-16T00:35:03.229Z,0.00
2019-05-16T00:36:05.920Z,0.00
2019-05-16T00:37:03.220Z,0.00
2019-05-16T00:38:03.228Z,0.00
2019-05-16T00:39:03.200Z,0.00
2019-05-16T00:40:03.201Z,0.00
2019-05-16T00:41:03.188Z,0.00
2019-05-16T00:42:03.183Z,0.00
2019-05-16T00:43:03.173Z,0.00
2019-05-16T00:44:03.165Z,0.00
2019-05-16T00:45:03.156Z,0.00
2019-05-16T00:46:03.153Z,0.00
2019-05-16T00:47:03.144Z,0.00
2019-05-16T00:48:03.140Z,0.00
2019-05-16T00:49:03.135Z,0.00
2019-05-16T00:50:03.123Z,0.00
2019-05-16T00:51:03.116Z,0.00
2019-05-16T00:52:03.110Z,0.00
2019-05-16T00:53:03.104Z,0.00
2019-05-16T00:54:03.099Z,0.00
2019-05-16T00:55:03.086Z,0.00
2019-05-16T00:56:03.078Z,0.00
2019-05-16T00:57:03.073Z,0.00
2019-05-16T00:58:03.062Z,0.00
2019-05-16T00:59:03.058Z,0.00
2019-05-16T01:00:03.049Z,0.00
2019-05-16T01:01:03.043Z,0.00
2019-05-16T01:02:03.035Z,0.00
2019-05-16T01:03:03.031Z,0.00
2019-05-16T01:04:03.020Z,0.00
2019-05-16T01:05:03.015Z,0.00
2019-05-16T01:06:15.419Z,0.00
2019-05-16T01:07:02.998Z,0.00
2019-05-16T01:08:02.994Z,0.00
2019-05-16T01:09:02.992Z,0.00
2019-05-16T01:10:02.978Z,0.00
2019-05-16T01:11:02.967Z,0.00
2019-05-16T01:12:02.961Z,0.00
2019-05-16T01:13:02.953Z,0.00
2019-05-16T01:14:02.949Z,0.00
2019-05-16T01:15:02.938Z,0.00
2019-05-16T01:16:02.964Z,0.00
2019-05-16T01:17:02.925Z,0.00
2019-05-16T01:18:02.918Z,0.00
2019-05-16T01:19:02.911Z,0.00
2019-05-16T01:20:02.905Z,0.00
2019-05-16T01:21:02.893Z,0.00
2019-05-16T01:22:02.886Z,0.00
2019-05-16T01:23:02.879Z,0.00
2019-05-16T01:24:02.877Z,0.00
2019-05-16T01:25:02.865Z,0.00
2019-05-16T01:26:02.858Z,0.00
2019-05-16T01:27:02.849Z,0.00
2019-05-16T01:28:02.841Z,0.00
2019-05-16T01:29:02.834Z,0.00
2019-05-16T01:30:02.828Z,0.00
2019-05-16T01:31:02.820Z,0.00
2019-05-16T01:32:02.811Z,0.00
2019-05-16T01:33:02.802Z,0.00
2019-05-16T01:34:02.797Z,0.00
2019-05-16T01:35:02.789Z,0.00
2019-05-16T01:36:02.781Z,0.00
2019-05-16T01:37:02.774Z,0.00
2019-05-16T01:38:02.768Z,0.00
2019-05-16T01:39:02.762Z,0.00
2019-05-16T01:40:02.752Z,0.00
2019-05-16T01:41:02.746Z,0.00
2019-05-16T01:42:02.736Z,0.00
2019-05-16T01:43:02.736Z,0.00
2019-05-16T01:44:02.722Z,0.00
2019-05-16T01:45:02.716Z,0.00
2019-05-16T01:46:02.705Z,0.00
2019-05-16T01:47:02.700Z,0.00
2019-05-16T01:48:02.690Z,0.00
2019-05-16T01:49:02.686Z,0.00
2019-05-16T01:50:02.676Z,0.00
2019-05-16T01:51:02.675Z,0.00
2019-05-16T01:52:02.668Z,0.00
2019-05-16T01:53:02.654Z,0.00
2019-05-16T01:54:02.646Z,0.00
2019-05-16T01:55:02.638Z,0.00
2019-05-16T01:56:02.632Z,0.00
2019-05-16T01:57:02.623Z,0.00
2019-05-16T01:58:02.615Z,0.00
2019-05-16T01:59:02.608Z,0.00
2019-05-16T02:00:02.600Z,0.00
2019-05-16T02:01:12.233Z,0.00
2019-05-16T02:02:02.586Z,0.00
2019-05-16T02:03:02.578Z,0.00
2019-05-16T02:04:02.572Z,0.00
2019-05-16T02:05:02.563Z,0.00
2019-05-16T02:06:02.553Z,0.00
2019-05-16T02:07:02.546Z,0.00
2019-05-16T02:08:02.539Z,0.00
2019-05-16T02:09:02.531Z,0.00
2019-05-16T02:10:02.526Z,0.00
2019-05-16T02:11:02.519Z,0.00
2019-05-16T02:12:02.510Z,0.00
2019-05-16T02:13:02.504Z,0.00
2019-05-16T02:14:02.494Z,0.00
2019-05-16T02:15:02.488Z,0.00
2019-05-16T02:16:02.480Z,0.00
2019-05-16T02:17:02.472Z,0.00
2019-05-16T02:18:02.463Z,0.00
2019-05-16T02:19:02.459Z,0.00
2019-05-16T02:20:02.450Z,0.00
2019-05-16T02:21:02.444Z,0.00
2019-05-16T02:22:02.435Z,0.00
2019-05-16T02:23:02.425Z,0.00
2019-05-16T02:24:02.412Z,0.00
2019-05-16T02:25:02.409Z,0.00
2019-05-16T02:26:02.402Z,0.00
2019-05-16T02:27:02.401Z,0.00
2019-05-16T02:28:02.387Z,0.00
2019-05-16T02:29:02.379Z,0.00
2019-05-16T02:30:02.372Z,0.00
2019-05-16T02:31:02.364Z,0.00
2019-05-16T02:32:02.358Z,0.00
2019-05-16T02:33:02.350Z,0.00
2019-05-16T02:34:04.943Z,0.00
2019-05-16T02:35:02.332Z,0.00
2019-05-16T02:36:02.331Z,0.00
2019-05-16T02:37:19.084Z,0.00
2019-05-16T02:38:02.314Z,0.00
2019-05-16T02:39:02.350Z,0.00
2019-05-16T02:40:02.302Z,0.00
2019-05-16T02:41:03.466Z,0.00
2019-05-16T02:42:02.299Z,0.00
2019-05-16T02:43:02.338Z,0.00
2019-05-16T02:44:02.275Z,0.00
2019-05-16T02:45:02.756Z,0.00
2019-05-16T02:46:02.251Z,0.00
2019-05-16T02:47:02.242Z,0.00
2019-05-16T02:48:02.235Z,0.00
2019-05-16T02:49:02.232Z,0.00
2019-05-16T02:50:02.228Z,0.00
2019-05-16T02:51:02.245Z,0.00
2019-05-16T02:52:02.208Z,0.00
2019-05-16T02:53:02.198Z,0.00
2019-05-16T02:54:02.199Z,0.00
2019-05-16T02:55:02.183Z,0.00
2019-05-16T02:56:02.185Z,0.00
2019-05-16T02:57:02.175Z,0.00
2019-05-16T02:58:02.183Z,0.00
2019-05-16T02:59:02.153Z,0.00
2019-05-16T03:00:02.446Z,0.00
2019-05-16T03:01:02.326Z,0.00
2019-05-16T03:02:02.135Z,0.00
2019-05-16T03:03:02.125Z,0.00
2019-05-16T03:04:02.116Z,0.00
2019-05-16T03:05:02.124Z,0.00
2019-05-16T03:06:02.108Z,0.00
2019-05-16T03:07:02.093Z,0.00
2019-05-16T03:08:02.088Z,0.00
2019-05-16T03:09:05.383Z,0.00
2019-05-16T03:10:02.318Z,0.00
2019-05-16T03:11:02.065Z,0.00
2019-05-16T03:12:02.054Z,0.00
2019-05-16T03:13:02.055Z,0.00
2019-05-16T03:14:02.040Z,0.00
2019-05-16T03:15:02.670Z,0.00
2019-05-16T03:16:02.030Z,0.00
2019-05-16T03:17:02.016Z,0.00
2019-05-16T03:18:04.399Z,0.00
2019-05-16T03:19:02.006Z,0.00
2019-05-16T03:20:02.099Z,0.00
2019-05-16T03:21:01.988Z,0.00
2019-05-16T03:22:01.981Z,0.00
2019-05-16T03:23:02.461Z,0.00
2019-05-16T03:24:01.993Z,0.00
2019-05-16T03:25:01.958Z,5.63
2019-05-16T03:26:01.949Z,5.63
2019-05-16T03:27:01.941Z,5.63
2019-05-16T03:28:02.376Z,5.63
2019-05-16T03:29:01.931Z,5.63
2019-05-16T03:30:02.598Z,5.63
2019-05-16T03:31:05.005Z,5.63
2019-05-16T03:32:03.380Z,5.63
2019-05-16T03:33:04.399Z,5.63
2019-05-16T03:34:07.218Z,5.63
2019-05-16T03:35:05.031Z,5.63
2019-05-16T03:36:04.658Z,5.63
2019-05-16T03:37:04.155Z,5.63
2019-05-16T03:38:05.373Z,5.63
2019-05-16T03:39:01.854Z,5.63
2019-05-16T03:40:01.853Z,5.63
2019-05-16T03:41:01.838Z,5.63
2019-05-16T03:42:01.832Z,5.63
2019-05-16T03:43:01.908Z,11.25
2019-05-16T03:44:01.817Z,11.25
2019-05-16T03:45:02.405Z,11.25
2019-05-16T03:46:02.693Z,11.25
2019-05-16T03:47:01.795Z,11.25
2019-05-16T03:48:03.144Z,11.25
2019-05-16T03:49:02.616Z,11.25
2019-05-16T03:50:01.771Z,11.25
2019-05-16T03:51:01.772Z,11.25
2019-05-16T03:52:01.880Z,11.25
2019-05-16T03:53:01.929Z,11.25
2019-05-16T03:54:02.838Z,11.25
2019-05-16T03:55:02.184Z,11.25
2019-05-16T03:56:02.043Z,11.25
2019-05-16T03:57:01.724Z,5.63
2019-05-16T03:58:01.758Z,5.63
2019-05-16T03:59:01.706Z,5.63
2019-05-16T04:00:01.779Z,5.63
2019-05-16T04:01:02.549Z,11.25
2019-05-16T04:02:01.875Z,11.25
2019-05-16T04:03:01.674Z,11.25
2019-05-16T04:04:02.003Z,11.25
2019-05-16T04:05:02.435Z,11.25
2019-05-16T04:06:01.706Z,11.25
2019-05-16T04:07:01.757Z,11.25
2019-05-16T04:08:11.315Z,11.25
2019-05-16T04:09:01.903Z,11.25
2019-05-16T04:10:02.409Z,11.25
2019-05-16T04:11:01.739Z,11.25
2019-05-16T04:12:02.061Z,11.25
2019-05-16T04:13:01.604Z,11.25
2019-05-16T04:14:01.714Z,16.88
2019-05-16T04:15:02.224Z,16.88
2019-05-16T04:16:01.805Z,16.88
2019-05-16T04:17:01.784Z,16.88
2019-05-16T04:18:01.688Z,16.88
2019-05-16T04:19:02.051Z,16.88
2019-05-16T04:20:02.314Z,16.88
2019-05-16T04:21:01.551Z,16.88
2019-05-16T04:22:01.675Z,16.88
2019-05-16T04:23:01.529Z,16.88
2019-05-16T04:24:01.531Z,11.25
2019-05-16T04:25:02.195Z,11.25
2019-05-16T04:26:01.507Z,11.25
2019-05-16T04:27:01.500Z,11.25
2019-05-16T04:28:01.493Z,11.25
2019-05-16T04:29:01.487Z,11.25
2019-05-16T04:30:02.260Z,11.25
2019-05-16T04:31:02.283Z,16.88
2019-05-16T04:32:01.845Z,16.88
2019-05-16T04:33:01.997Z,11.25
2019-05-16T04:34:01.449Z,11.25
2019-05-16T04:35:02.630Z,11.25
2019-05-16T04:36:01.638Z,11.25
2019-05-16T04:37:01.476Z,11.25
2019-05-16T04:38:02.016Z,11.25
2019-05-16T04:39:01.906Z,11.25
2019-05-16T04:40:01.812Z,11.25
2019-05-16T04:41:01.670Z,11.25
2019-05-16T04:42:01.715Z,11.25
2019-05-16T04:43:01.386Z,11.25
2019-05-16T04:44:04.487Z,11.25
2019-05-16T04:45:01.435Z,11.25
2019-05-16T04:46:01.789Z,11.25
2019-05-16T04:47:01.828Z,11.25
2019-05-16T04:48:01.347Z,16.88
2019-05-16T04:49:01.877Z,16.88
2019-05-16T04:50:02.024Z,16.88
2019-05-16T04:51:01.805Z,16.88
2019-05-16T04:52:01.320Z,16.88
2019-05-16T04:53:01.526Z,16.88
2019-05-16T04:54:02.000Z,16.88
2019-05-16T04:55:01.300Z,16.88
2019-05-16T04:56:02.036Z,16.88
2019-05-16T04:57:01.715Z,16.88
2019-05-16T04:58:01.570Z,16.88
2019-05-16T04:59:01.268Z,16.88
2019-05-16T05:00:02.552Z,16.88
2019-05-16T05:01:01.628Z,11.25
2019-05-16T05:02:02.343Z,16.88
2019-05-16T05:03:01.499Z,16.88
2019-05-16T05:04:10.188Z,16.88
2019-05-16T05:05:01.557Z,16.88
2019-05-16T05:06:01.456Z,16.88
2019-05-16T05:07:01.207Z,16.88
2019-05-16T05:08:01.562Z,16.88
2019-05-16T05:09:03.481Z,16.88
2019-05-16T05:10:01.197Z,22.50
2019-05-16T05:11:01.448Z,22.50
2019-05-16T05:12:04.387Z,16.88
2019-05-16T05:13:01.710Z,16.88
2019-05-16T05:14:01.163Z,16.88
2019-05-16T05:15:01.627Z,16.88
2019-05-16T05:16:01.541Z,22.50
2019-05-16T05:17:04.800Z,16.88
2019-05-16T05:18:01.130Z,22.50
2019-05-16T05:19:01.125Z,22.50
2019-05-16T05:20:01.381Z,22.50
2019-05-16T05:21:01.268Z,28.13
2019-05-16T05:22:01.405Z,28.13
2019-05-16T05:23:01.095Z,28.13
2019-05-16T05:24:01.092Z,28.13
2019-05-16T05:25:01.082Z,28.13
2019-05-16T05:26:01.073Z,33.75
2019-05-16T05:27:01.072Z,28.13
2019-05-16T05:28:01.065Z,28.13
2019-05-16T05:29:01.053Z,28.13
2019-05-16T05:30:01.288Z,28.13
2019-05-16T05:31:01.036Z,28.13
2019-05-16T05:32:04.295Z,28.13
2019-05-16T05:33:01.029Z,28.13
2019-05-16T05:34:01.392Z,28.13
2019-05-16T05:35:01.010Z,28.13
2019-05-16T05:36:01.320Z,33.75
2019-05-16T05:37:01.003Z,33.75
2019-05-16T05:38:00.991Z,33.75
2019-05-16T05:39:11.690Z,33.75
2019-05-16T05:40:00.976Z,33.75
2019-05-16T05:41:00.965Z,39.38
2019-05-16T05:42:00.979Z,33.75
2019-05-16T05:43:00.950Z,33.75
2019-05-16T05:44:00.949Z,33.75
2019-05-16T05:45:00.937Z,33.75
2019-05-16T05:46:00.987Z,33.75
2019-05-16T05:47:00.987Z,28.13
2019-05-16T05:48:00.919Z,28.13
2019-05-16T05:49:00.907Z,33.75
2019-05-16T05:50:00.901Z,28.13
2019-05-16T05:51:00.893Z,28.13
2019-05-16T05:52:00.980Z,28.13
2019-05-16T05:53:01.514Z,28.13
2019-05-16T05:54:00.866Z,28.13
2019-05-16T05:55:00.927Z,33.75
2019-05-16T05:56:00.881Z,39.38
2019-05-16T05:57:00.874Z,45.00
2019-05-16T05:58:01.094Z,50.63
2019-05-16T05:59:01.550Z,56.25
2019-05-16T06:00:00.882Z,56.25
2019-05-16T06:01:01.018Z,56.25
2019-05-16T06:02:01.111Z,73.13
2019-05-16T06:03:00.809Z,73.13
2019-05-16T06:04:00.801Z,78.75
2019-05-16T06:05:00.798Z,67.50
2019-05-16T06:06:01.143Z,73.13
2019-05-16T06:07:01.364Z,73.13
2019-05-16T06:08:00.775Z,73.13
2019-05-16T06:09:00.769Z,67.50
2019-05-16T06:10:00.758Z,61.88
2019-05-16T06:11:00.933Z,56.25
2019-05-16T06:12:00.875Z,50.63
2019-05-16T06:13:00.741Z,50.63
2019-05-16T06:14:00.730Z,56.25
2019-05-16T06:15:07.558Z,50.63
2019-05-16T06:16:00.718Z,50.63
2019-05-16T06:17:00.740Z,45.00
2019-05-16T06:18:00.701Z,45.00
2019-05-16T06:19:01.018Z,50.63
2019-05-16T06:20:00.696Z,56.25
2019-05-16T06:21:00.775Z,67.50
2019-05-16T06:22:01.445Z,78.75
2019-05-16T06:23:00.670Z,84.38
2019-05-16T06:24:00.661Z,90.00
2019-05-16T06:25:01.216Z,73.13
2019-05-16T06:26:00.776Z,78.75
2019-05-16T06:27:01.035Z,78.75
2019-05-16T06:28:00.633Z,67.50
2019-05-16T06:29:00.803Z,61.88
2019-05-16T06:30:00.768Z,61.88
2019-05-16T06:31:01.991Z,61.88
2019-05-16T06:32:00.605Z,61.88
2019-05-16T06:33:00.598Z,61.88
2019-05-16T06:34:08.173Z,73.13
2019-05-16T06:35:00.582Z,61.88
2019-05-16T06:36:00.576Z,50.63
2019-05-16T06:37:00.683Z,56.25
2019-05-16T06:38:00.689Z,61.88
2019-05-16T06:39:00.557Z,78.75
2019-05-16T06:40:00.814Z,90.00
2019-05-16T06:41:00.690Z,101.25
2019-05-16T06:42:00.633Z,101.25
2019-05-16T06:43:00.527Z,118.13
2019-05-16T06:44:00.520Z,101.25
2019-05-16T06:45:00.976Z,106.88
2019-05-16T06:46:00.791Z,90.00
2019-05-16T06:47:15.949Z,84.38
2019-05-16T06:48:00.819Z,84.38
2019-05-16T06:49:00.488Z,90.00
2019-05-16T06:50:00.509Z,73.13
2019-05-16T06:51:02.966Z,78.75
2019-05-16T06:52:00.471Z,84.38
2019-05-16T06:53:00.962Z,84.38
2019-05-16T06:54:00.587Z,84.38
2019-05-16T06:55:00.901Z,78.75
2019-05-16T06:56:00.438Z,90.00
2019-05-16T06:57:00.469Z,95.63
2019-05-16T06:58:00.837Z,90.00
2019-05-16T06:59:00.863Z,84.38
2019-05-16T07:00:00.751Z,73.13
2019-05-16T07:01:03.372Z,73.13
2019-05-16T07:02:00.566Z,73.13
2019-05-16T07:03:00.480Z,84.38
2019-05-16T07:04:00.388Z,73.13
2019-05-16T07:05:01.083Z,67.50
2019-05-16T07:06:00.675Z,73.13
2019-05-16T07:07:03.095Z,67.50
2019-05-16T07:08:00.359Z,84.38
2019-05-16T07:09:01.071Z,101.25
2019-05-16T07:10:04.330Z,123.75
2019-05-16T07:11:00.339Z,106.88
2019-05-16T07:12:00.332Z,112.50
2019-05-16T07:13:00.783Z,112.50
2019-05-16T07:14:00.655Z,112.50
2019-05-16T07:15:01.702Z,101.25
2019-05-16T07:16:00.655Z,118.13
2019-05-16T07:17:00.396Z,101.25
2019-05-16T07:18:00.290Z,106.88
2019-05-16T07:19:00.902Z,101.25
2019-05-16T07:20:00.714Z,101.25
2019-05-16T07:21:00.359Z,101.25
2019-05-16T07:22:00.262Z,101.25
2019-05-16T07:23:00.733Z,84.38
2019-05-16T07:24:00.267Z,84.38
2019-05-16T07:25:00.247Z,84.38
2019-05-16T07:26:00.743Z,67.50
2019-05-16T07:27:00.418Z,61.88
2019-05-16T07:28:00.722Z,61.88
2019-05-16T07:29:00.389Z,56.25
2019-05-16T07:30:01.145Z,73.13
2019-05-16T07:31:06.507Z,67.50
2019-05-16T07:32:00.578Z,61.88
2019-05-16T07:33:00.331Z,67.50
2019-05-16T07:34:00.815Z,67.50
2019-05-16T07:35:00.478Z,67.50
2019-05-16T07:36:00.498Z,67.50
2019-05-16T07:37:00.493Z,84.38
2019-05-16T07:38:00.628Z,78.75
2019-05-16T07:39:00.149Z,67.50
2019-05-16T07:40:15.574Z,67.50
2019-05-16T07:41:00.139Z,73.13
2019-05-16T07:42:00.144Z,78.75
2019-05-16T07:43:00.177Z,73.13
2019-05-16T07:44:00.964Z,67.50
2019-05-16T07:45:00.707Z,73.13
2019-05-16T07:46:00.633Z,67.50
2019-05-16T07:47:00.995Z,67.50
2019-05-16T07:48:00.184Z,61.88
2019-05-16T07:49:01.226Z,61.88
2019-05-16T07:50:00.079Z,67.50
2019-05-16T07:51:00.516Z,78.75
2019-05-16T07:52:00.596Z,95.63
2019-05-16T07:53:00.091Z,112.50
2019-05-16T07:54:00.052Z,112.50
2019-05-16T07:55:03.738Z,78.75
2019-05-16T07:56:00.223Z,73.13
2019-05-16T07:57:11.722Z,73.13
2019-05-16T07:58:00.025Z,84.38
2019-05-16T07:59:00.923Z,78.75
2019-05-16T08:00:00.246Z,84.38
2019-05-16T08:01:04.525Z,73.13
2019-05-16T08:02:00.533Z,73.13
2019-05-16T08:03:00.104Z,67.50
2019-05-16T08:04:00.160Z,67.50
2019-05-16T08:05:00.735Z,67.50
2019-05-16T08:06:01.643Z,67.50
2019-05-16T08:07:00.595Z,61.88
2019-05-16T08:08:00.121Z,56.25
2019-05-16T08:09:00.324Z,61.88
2019-05-16T08:10:00.012Z,61.88
2019-05-16T08:11:01.555Z,56.25
2019-05-16T08:12:01.858Z,56.25
2019-05-16T08:13:03.329Z,61.88
2019-05-16T08:14:00.970Z,61.88
2019-05-16T08:16:01.283Z,73.13
2019-05-16T08:17:01.090Z,67.50
2019-05-16T08:19:00.994Z,90.00
2019-05-16T08:20:00.372Z,95.63
2019-05-16T08:21:01.212Z,90.00
2019-05-16T08:22:01.338Z,95.63
2019-05-16T08:23:00.832Z,90.00
2019-05-16T08:24:06.472Z,78.75
2019-05-16T08:25:00.306Z,73.13
2019-05-16T08:26:01.190Z,73.13
2019-05-16T08:27:01.307Z,67.50
2019-05-16T08:28:01.163Z,61.88
2019-05-16T08:29:02.100Z,84.38
2019-05-16T08:30:02.537Z,78.75
2019-05-16T08:32:02.231Z,90.00
2019-05-16T08:33:02.469Z,101.25
2019-05-16T08:34:00.995Z,101.25
2019-05-16T08:35:01.147Z,90.00
2019-05-16T08:36:04.721Z,84.38
2019-05-16T08:37:01.138Z,95.63
2019-05-16T08:38:01.102Z,95.63
2019-05-16T08:39:01.073Z,95.63
2019-05-16T08:40:00.433Z,101.25
2019-05-16T08:41:08.051Z,84.38
2019-05-16T08:42:07.775Z,73.13
2019-05-16T08:43:00.430Z,78.75
2019-05-16T08:44:01.141Z,73.13
2019-05-16T08:45:01.847Z,73.13
2019-05-16T08:46:01.008Z,84.38
2019-05-16T08:48:00.314Z,95.63
2019-05-16T08:49:01.080Z,106.88
2019-05-16T08:50:00.587Z,106.88
2019-05-16T08:50:04.936Z,90.00
2019-05-16T08:50:05.094Z,67.50
2019-05-16T08:51:02.731Z,95.63
2019-05-16T08:52:01.501Z,112.50
2019-05-16T08:53:02.669Z,123.75
2019-05-16T08:54:01.543Z,123.75
2019-05-16T08:55:03.135Z,106.88
2019-05-16T08:56:03.895Z,106.88
2019-05-16T08:57:16.319Z,112.50
2019-05-16T08:58:02.582Z,106.88
2019-05-16T08:59:02.630Z,112.50
2019-05-16T09:00:01.363Z,112.50
2019-05-16T09:01:02.295Z,129.38
2019-05-16T09:02:03.343Z,118.13
2019-05-16T09:03:01.647Z,140.63
2019-05-16T09:04:01.400Z,123.75
2019-05-16T09:05:04.940Z,118.13
2019-05-16T09:06:02.845Z,129.38
2019-05-16T09:07:01.948Z,118.13
2019-05-16T09:08:00.947Z,118.13
2019-05-16T09:09:10.223Z,123.75
2019-05-16T09:10:00.423Z,118.13
2019-05-16T09:11:04.821Z,123.75
2019-05-16T09:11:59.548Z,135.00
2019-05-16T09:12:59.547Z,140.63
2019-05-16T09:13:59.532Z,129.38
2019-05-16T09:14:59.623Z,123.75
2019-05-16T09:15:59.519Z,123.75
2019-05-16T09:16:59.521Z,123.75
2019-05-16T09:17:59.509Z,123.75
2019-05-16T09:18:38.098Z,84.38
2019-05-16T09:18:59.503Z,123.75
2019-05-16T09:19:59.497Z,129.38
2019-05-16T09:20:59.495Z,129.38
2019-05-16T09:21:59.491Z,129.38
2019-05-16T09:22:59.477Z,129.38
2019-05-16T09:23:59.471Z,123.75
2019-05-16T09:24:59.465Z,112.50
2019-05-16T09:25:59.458Z,112.50
2019-05-16T09:26:59.451Z,106.88
2019-05-16T09:27:59.444Z,106.88
2019-05-16T09:28:59.440Z,118.13
2019-05-16T09:29:59.433Z,112.50
2019-05-16T09:30:59.427Z,101.25
2019-05-16T09:32:09.130Z,90.00
2019-05-16T09:32:59.433Z,90.00
2019-05-16T09:33:59.406Z,112.50
2019-05-16T09:34:59.402Z,101.25
2019-05-16T09:35:59.397Z,101.25
2019-05-16T09:37:01.022Z,95.63
2019-05-16T09:37:59.384Z,84.38
2019-05-16T09:38:59.376Z,73.13
2019-05-16T09:39:59.371Z,84.38
2019-05-16T09:40:59.366Z,84.38
2019-05-16T09:41:59.358Z,84.38
2019-05-16T09:42:59.351Z,84.38
2019-05-16T09:43:59.627Z,84.38
2019-05-16T09:44:59.342Z,95.63
2019-05-16T09:46:03.687Z,84.38
2019-05-16T09:46:59.327Z,90.00
2019-05-16T09:47:59.321Z,101.25
2019-05-16T09:49:15.613Z,118.13
2019-05-16T09:49:59.308Z,140.63
2019-05-16T09:50:59.303Z,106.88
2019-05-16T09:51:59.298Z,84.38
2019-05-16T09:52:59.290Z,73.13
2019-05-16T09:53:59.282Z,95.63
2019-05-16T09:54:59.282Z,129.38
2019-05-16T09:55:59.271Z,118.13
2019-05-16T09:56:59.266Z,84.38
2019-05-16T09:57:59.258Z,78.75
2019-05-16T09:58:59.254Z,112.50
2019-05-16T09:59:59.246Z,135.00
2019-05-16T10:00:59.241Z,129.38
2019-05-16T10:01:59.238Z,101.25
2019-05-16T10:02:59.228Z,112.50
2019-05-16T10:03:59.221Z,123.75
2019-05-16T10:04:59.221Z,135.00
2019-05-16T10:05:59.209Z,123.75
2019-05-16T10:06:59.206Z,106.88
2019-05-16T10:07:59.198Z,90.00
2019-05-16T10:08:59.193Z,84.38
2019-05-16T10:09:59.185Z,78.75
2019-05-16T10:10:59.179Z,78.75
2019-05-16T10:12:11.443Z,73.13
2019-05-16T10:12:59.179Z,84.38
2019-05-16T10:13:59.166Z,95.63
2019-05-16T10:14:59.761Z,101.25
2019-05-16T10:15:59.149Z,106.88
2019-05-16T10:16:59.143Z,106.88
2019-05-16T10:17:59.138Z,106.88
2019-05-16T10:18:59.127Z,112.50
2019-05-16T10:20:00.274Z,95.63
2019-05-16T10:20:59.418Z,123.75
2019-05-16T10:22:00.324Z,112.50
2019-05-16T10:22:59.107Z,118.13
2019-05-16T10:23:59.098Z,106.88
2019-05-16T10:24:59.096Z,118.13
2019-05-16T10:25:59.086Z,129.38
2019-05-16T10:26:59.078Z,129.38
2019-05-16T10:27:59.081Z,123.75
2019-05-16T10:28:59.068Z,118.13
2019-05-16T10:30:01.150Z,129.38
2019-05-16T10:30:59.055Z,140.63
2019-05-16T10:31:59.050Z,135.00
2019-05-16T10:33:00.916Z,140.63
2019-05-16T10:33:59.034Z,135.00
2019-05-16T10:34:59.033Z,146.25
2019-05-16T10:35:59.026Z,151.88
2019-05-16T10:36:59.023Z,151.88
2019-05-16T10:37:59.017Z,146.25
2019-05-16T10:38:59.369Z,140.63
2019-05-16T10:40:00.028Z,135.00
2019-05-16T10:40:58.996Z,140.63
2019-05-16T10:41:58.992Z,146.25
2019-05-16T10:42:58.993Z,163.13
2019-05-16T10:43:59.058Z,168.75
2019-05-16T10:44:58.976Z,185.63
2019-05-16T10:45:58.963Z,191.25
2019-05-16T10:46:58.960Z,213.75
2019-05-16T10:47:58.953Z,213.75
2019-05-16T10:48:58.949Z,196.88
2019-05-16T10:49:58.942Z,191.25
2019-05-16T10:50:58.935Z,230.63
2019-05-16T10:51:58.931Z,196.88
2019-05-16T10:53:22.556Z,213.75
2019-05-16T10:54:09.092Z,236.25
2019-05-16T10:55:02.221Z,241.88
2019-05-16T10:55:58.987Z,202.50
2019-05-16T10:56:58.966Z,180.00
2019-05-16T10:57:58.897Z,191.25
2019-05-16T10:59:38.348Z,180.00
2019-05-16T11:00:08.987Z,151.88
2019-05-16T11:01:19.541Z,163.13
2019-05-16T11:01:59.653Z,168.75
2019-05-16T11:02:59.035Z,157.50
2019-05-16T11:03:58.863Z,196.88
2019-05-16T11:05:14.258Z,202.50
2019-05-16T11:06:05.321Z,208.13
2019-05-16T11:06:58.845Z,202.50
2019-05-16T11:07:58.862Z,213.75
2019-05-16T11:08:58.834Z,213.75
2019-05-16T11:10:03.204Z,208.13
2019-05-16T11:10:58.821Z,247.50
2019-05-16T11:11:58.818Z,258.75
2019-05-16T11:12:59.813Z,225.00
2019-05-16T11:13:58.805Z,241.88
2019-05-16T11:14:58.807Z,241.88
2019-05-16T11:15:58.795Z,264.38
2019-05-16T11:16:58.788Z,286.88
2019-05-16T11:18:00.029Z,247.50
2019-05-16T11:19:13.730Z,236.25
2019-05-16T11:19:58.771Z,213.75
2019-05-16T11:20:58.771Z,213.75
2019-05-16T11:21:58.783Z,213.75
2019-05-16T11:22:58.758Z,208.13
2019-05-16T11:23:58.750Z,202.50
2019-05-16T11:24:58.751Z,185.63
2019-05-16T11:25:58.741Z,191.25
2019-05-16T11:26:58.734Z,191.25
2019-05-16T11:27:58.733Z,185.63
2019-05-16T11:28:58.725Z,174.38
2019-05-16T11:29:58.717Z,180.00
2019-05-16T11:31:03.314Z,168.75
2019-05-16T11:31:58.709Z,163.13
2019-05-16T11:32:58.702Z,146.25
2019-05-16T11:33:58.698Z,146.25
2019-05-16T11:34:58.691Z,140.63
2019-05-16T11:35:58.688Z,140.63
2019-05-16T11:36:58.698Z,157.50
2019-05-16T11:37:58.674Z,157.50
2019-05-16T11:39:01.909Z,168.75
2019-05-16T11:39:58.664Z,174.38
2019-05-16T11:40:58.658Z,174.38
2019-05-16T11:41:58.655Z,168.75
2019-05-16T11:43:09.211Z,168.75
2019-05-16T11:43:58.642Z,185.63
2019-05-16T11:44:58.636Z,163.13
2019-05-16T11:45:58.633Z,168.75
2019-05-16T11:46:58.645Z,185.63
2019-05-16T11:47:58.627Z,163.13
2019-05-16T11:48:58.615Z,174.38
2019-05-16T11:49:58.609Z,163.13
2019-05-16T11:50:58.605Z,151.88
2019-05-16T11:51:58.598Z,157.50
2019-05-16T11:52:58.596Z,180.00
2019-05-16T11:54:00.058Z,174.38
2019-05-16T11:54:58.581Z,180.00
2019-05-16T11:56:01.664Z,208.13
2019-05-16T11:56:58.571Z,168.75
2019-05-16T11:57:58.566Z,168.75
2019-05-16T11:58:58.558Z,174.38
2019-05-16T11:59:58.558Z,180.00
2019-05-16T12:00:58.553Z,168.75
2019-05-16T12:01:58.542Z,180.00
2019-05-16T12:02:58.546Z,185.63
2019-05-16T12:03:58.534Z,208.13
2019-05-16T12:04:58.528Z,202.50
2019-05-16T12:05:58.537Z,219.38
2019-05-16T12:06:58.515Z,219.38
2019-05-16T12:07:58.513Z,225.00
2019-05-16T12:08:58.507Z,236.25
2019-05-16T12:09:58.500Z,241.88
2019-05-16T12:10:58.496Z,258.75
2019-05-16T12:12:03.845Z,264.38
2019-05-16T12:12:58.487Z,230.63
2019-05-16T12:13:58.478Z,213.75
2019-05-16T12:14:58.506Z,180.00
2019-05-16T12:15:58.478Z,185.63
2019-05-16T12:16:58.463Z,225.00
2019-05-16T12:18:01.826Z,236.25
2019-05-16T12:18:58.453Z,213.75
2019-05-16T12:19:58.449Z,264.38
2019-05-16T12:20:58.442Z,247.50
2019-05-16T12:21:58.436Z,213.75
2019-05-16T12:22:58.435Z,191.25
2019-05-16T12:23:58.427Z,219.38
2019-05-16T12:24:58.421Z,202.50
2019-05-16T12:26:00.127Z,180.00
2019-05-16T12:27:00.731Z,174.38
2019-05-16T12:27:58.406Z,140.63
2019-05-16T12:28:58.403Z,118.13
2019-05-16T12:29:59.112Z,135.00
2019-05-16T12:30:58.389Z,208.13
2019-05-16T12:32:02.538Z,236.25
2019-05-16T12:32:58.381Z,208.13
2019-05-16T12:33:59.743Z,202.50
2019-05-16T12:34:58.368Z,213.75
2019-05-16T12:35:58.368Z,213.75
2019-05-16T12:36:58.360Z,213.75
2019-05-16T12:37:58.352Z,230.63
2019-05-16T12:38:58.349Z,196.88
2019-05-16T12:39:58.363Z,225.00
2019-05-16T12:40:58.337Z,253.13
2019-05-16T12:41:59.629Z,174.38
2019-05-16T12:42:58.327Z,180.00
2019-05-16T12:43:58.324Z,196.88
2019-05-16T12:44:58.315Z,191.25
2019-05-16T12:45:58.310Z,157.50
2019-05-16T12:46:58.309Z,151.88
2019-05-16T12:47:58.310Z,168.75
2019-05-16T12:48:58.297Z,163.13
2019-05-16T12:49:58.289Z,185.63
2019-05-16T12:50:59.142Z,208.13
2019-05-16T12:51:58.278Z,236.25
2019-05-16T12:52:58.273Z,281.25